createdAt,value
2018-02-23T00:00:53.922Z,-4.08
2018-02-23T00:01:53.920Z,-3.99
2018-02-23T00:02:53.894Z,-4.09
2018-02-23T00:03:53.871Z,-4.04
2018-02-23T00:04:53.861Z,-4.08
2018-02-23T00:05:53.854Z,-4.07
2018-02-23T00:06:53.865Z,-4.11
2018-02-23T00:07:53.824Z,-4.02
2018-02-23T00:08:53.805Z,-4.11
2018-02-23T00:09:53.795Z,-4.04
2018-02-23T00:10:53.781Z,-4.05
2018-02-23T00:11:53.776Z,-4.19
2018-02-23T00:12:53.788Z,-4.22
2018-02-23T00:13:53.761Z,-4.28
2018-02-23T00:14:53.797Z,-4.23
2018-02-23T00:15:53.728Z,-4.30
2018-02-23T00:16:53.768Z,-4.28
2018-02-23T00:17:53.726Z,-4.32
2018-02-23T00:18:53.700Z,-4.37
2018-02-23T00:19:53.677Z,-4.32
2018-02-23T00:20:53.697Z,-4.32
2018-02-23T00:21:53.658Z,-4.32
2018-02-23T00:22:53.662Z,-4.32
2018-02-23T00:23:53.632Z,-4.33
2018-02-23T00:24:53.631Z,-4.36
2018-02-23T00:25:53.599Z,-4.44
2018-02-23T00:26:53.636Z,-4.48
2018-02-23T00:27:53.578Z,-4.50
2018-02-23T00:28:53.564Z,-4.58
2018-02-23T00:29:53.554Z,-4.51
2018-02-23T00:30:53.540Z,-4.54
2018-02-23T00:31:53.527Z,-4.57
2018-02-23T00:32:53.517Z,-4.51
2018-02-23T00:33:53.514Z,-4.48
2018-02-23T00:34:53.496Z,-4.46
2018-02-23T00:35:53.509Z,-4.50
2018-02-23T00:36:53.504Z,-4.55
2018-02-23T00:37:53.467Z,-4.57
2018-02-23T00:38:53.441Z,-4.58
2018-02-23T00:39:53.434Z,-4.71
2018-02-23T00:40:53.446Z,-4.64
2018-02-23T00:41:53.409Z,-4.65
2018-02-23T00:42:53.390Z,-4.61
2018-02-23T00:43:53.379Z,-4.64
2018-02-23T00:44:53.370Z,-4.62
2018-02-23T00:45:53.361Z,-4.58
2018-02-23T00:46:53.339Z,-4.55
2018-02-23T00:47:53.333Z,-4.51
2018-02-23T00:48:53.320Z,-4.58
2018-02-23T00:49:53.302Z,-4.58
2018-02-23T00:50:53.338Z,-4.61
2018-02-23T00:51:53.281Z,-4.61
2018-02-23T00:52:53.270Z,-4.68
2018-02-23T00:53:53.251Z,-4.69
2018-02-23T00:54:53.240Z,-4.73
2018-02-23T00:55:53.228Z,-4.82
2018-02-23T00:56:53.220Z,-4.82
2018-02-23T00:57:53.204Z,-4.85
2018-02-23T00:58:53.228Z,-4.79
2018-02-23T00:59:53.204Z,-4.77
2018-02-23T01:00:53.164Z,-4.75
2018-02-23T01:01:53.166Z,-4.85
2018-02-23T01:02:53.146Z,-4.75
2018-02-23T01:03:53.135Z,-4.76
2018-02-23T01:04:53.144Z,-4.77
2018-02-23T01:05:53.135Z,-4.89
2018-02-23T01:06:53.159Z,-4.85
2018-02-23T01:07:53.111Z,-4.82
2018-02-23T01:08:53.068Z,-4.80
2018-02-23T01:09:53.082Z,-4.89
2018-02-23T01:10:53.094Z,-4.98
2018-02-23T01:11:53.048Z,-4.95
2018-02-23T01:12:53.039Z,-5.01
2018-02-23T01:13:53.112Z,-5.01
2018-02-23T01:14:53.040Z,-5.01
2018-02-23T01:15:53.014Z,-5.04
2018-02-23T01:16:52.971Z,-5.12
2018-02-23T01:17:52.963Z,-5.16
2018-02-23T01:18:52.953Z,-4.98
2018-02-23T01:19:52.939Z,-5.00
2018-02-23T01:20:52.923Z,-5.00
2018-02-23T01:21:52.905Z,-4.95
2018-02-23T01:22:52.888Z,-4.97
2018-02-23T01:23:52.900Z,-4.89
2018-02-23T01:24:52.967Z,-4.93
2018-02-23T01:25:52.915Z,-4.95
2018-02-23T01:26:52.896Z,-4.98
2018-02-23T01:27:52.842Z,-4.94
2018-02-23T01:28:52.839Z,-4.94
2018-02-23T01:29:53.707Z,-4.94
2018-02-23T01:30:52.794Z,-4.98
2018-02-23T01:31:52.787Z,-5.01
2018-02-23T01:32:52.840Z,-5.03
2018-02-23T01:33:52.785Z,-4.93
2018-02-23T01:34:52.803Z,-5.00
2018-02-23T01:35:52.734Z,-4.98
2018-02-23T01:36:52.793Z,-5.07
2018-02-23T01:37:52.714Z,-5.07
2018-02-23T01:38:52.695Z,-5.03
2018-02-23T01:39:52.724Z,-5.07
2018-02-23T01:40:52.735Z,-5.17
2018-02-23T01:41:52.660Z,-5.04
2018-02-23T01:42:52.645Z,-5.08
2018-02-23T01:43:52.688Z,-5.05
2018-02-23T01:44:52.615Z,-4.98
2018-02-23T01:45:52.602Z,-5.14
2018-02-23T01:46:52.606Z,-5.03
2018-02-23T01:47:52.608Z,-4.94
2018-02-23T01:48:52.565Z,-4.94
2018-02-23T01:49:52.569Z,-4.97
2018-02-23T01:50:52.600Z,-4.97
2018-02-23T01:51:52.569Z,-5.04
2018-02-23T01:52:52.540Z,-5.08
2018-02-23T01:53:52.546Z,-5.04
2018-02-23T01:54:52.497Z,-4.98
2018-02-23T01:55:52.479Z,-5.04
2018-02-23T01:56:52.498Z,-4.97
2018-02-23T01:57:52.463Z,-5.04
2018-02-23T01:58:52.477Z,-4.97
2018-02-23T01:59:52.475Z,-5.01
2018-02-23T02:00:52.446Z,-5.01
2018-02-23T02:01:52.394Z,-5.11
2018-02-23T02:02:52.388Z,-5.00
2018-02-23T02:03:52.392Z,-5.11
2018-02-23T02:04:52.356Z,-4.98
2018-02-23T02:05:52.375Z,-5.01
2018-02-23T02:06:52.337Z,-5.04
2018-02-23T02:07:52.358Z,-5.17
2018-02-23T02:08:52.303Z,-5.11
2018-02-23T02:09:52.343Z,-5.12
2018-02-23T02:10:52.288Z,-5.05
2018-02-23T02:11:52.268Z,-5.07
2018-02-23T02:12:52.257Z,-5.17
2018-02-23T02:13:52.280Z,-5.19
2018-02-23T02:14:52.223Z,-5.26
2018-02-23T02:15:52.214Z,-5.25
2018-02-23T02:16:52.245Z,-5.38
2018-02-23T02:17:52.181Z,-5.44
2018-02-23T02:18:52.174Z,-5.51
2018-02-23T02:19:52.231Z,-5.65
2018-02-23T02:20:52.142Z,-5.69
2018-02-23T02:21:52.128Z,-5.77
2018-02-23T02:22:52.124Z,-5.56
2018-02-23T02:23:52.117Z,-5.67
2018-02-23T02:24:52.098Z,-5.61
2018-02-23T02:25:52.094Z,-5.59
2018-02-23T02:26:52.069Z,-5.54
2018-02-23T02:27:52.052Z,-5.49
2018-02-23T02:28:52.088Z,-5.43
2018-02-23T02:29:52.037Z,-5.58
2018-02-23T02:30:52.014Z,-5.55
2018-02-23T02:31:52.020Z,-5.61
2018-02-23T02:32:51.985Z,-5.73
2018-02-23T02:33:51.975Z,-5.69
2018-02-23T02:34:51.992Z,-5.76
2018-02-23T02:35:51.945Z,-5.77
2018-02-23T02:36:51.950Z,-5.82
2018-02-23T02:37:51.917Z,-5.83
2018-02-23T02:38:51.913Z,-5.83
2018-02-23T02:39:51.915Z,-5.82
2018-02-23T02:40:51.882Z,-5.80
2018-02-23T02:41:51.864Z,-5.90
2018-02-23T02:42:51.858Z,-5.80
2018-02-23T02:43:51.866Z,-5.92
2018-02-23T02:44:51.831Z,-5.91
2018-02-23T02:45:51.852Z,-5.95
2018-02-23T02:46:51.808Z,-5.98
2018-02-23T02:47:51.786Z,-5.95
2018-02-23T02:48:51.777Z,-5.94
2018-02-23T02:49:51.779Z,-5.95
2018-02-23T02:50:51.775Z,-6.08
2018-02-23T02:51:51.751Z,-6.08
2018-02-23T02:52:51.749Z,-6.09
2018-02-23T02:53:51.726Z,-6.15
2018-02-23T02:54:51.699Z,-6.12
2018-02-23T02:55:51.684Z,-6.21
2018-02-23T02:56:51.664Z,-6.18
2018-02-23T02:57:51.708Z,-6.31
2018-02-23T02:58:51.656Z,-6.34
2018-02-23T02:59:51.659Z,-6.34
2018-02-23T03:00:51.642Z,-6.45
2018-02-23T03:01:51.599Z,-6.54
2018-02-23T03:02:51.639Z,-6.67
2018-02-23T03:03:51.605Z,-6.76
2018-02-23T03:04:51.562Z,-6.66
2018-02-23T03:05:51.587Z,-6.77
2018-02-23T03:06:51.529Z,-6.76
2018-02-23T03:07:51.553Z,-6.71
2018-02-23T03:08:51.542Z,-6.73
2018-02-23T03:09:51.501Z,-6.67
2018-02-23T03:10:51.474Z,-6.71
2018-02-23T03:11:51.469Z,-6.69
2018-02-23T03:12:51.469Z,-6.64
2018-02-23T03:13:51.461Z,-6.71
2018-02-23T03:14:51.450Z,-6.69
2018-02-23T03:15:51.422Z,-6.77
2018-02-23T03:16:51.418Z,-6.77
2018-02-23T03:17:51.435Z,-6.84
2018-02-23T03:18:51.425Z,-6.82
2018-02-23T03:19:51.385Z,-6.87
2018-02-23T03:20:51.350Z,-6.88
2018-02-23T03:21:51.348Z,-6.95
2018-02-23T03:22:51.314Z,-6.99
2018-02-23T03:23:51.303Z,-6.97
2018-02-23T03:24:51.331Z,-6.95
2018-02-23T03:25:51.287Z,-7.03
2018-02-23T03:26:51.349Z,-7.02
2018-02-23T03:27:51.270Z,-7.08
2018-02-23T03:28:51.264Z,-7.02
2018-02-23T03:29:51.285Z,-7.06
2018-02-23T03:30:51.236Z,-7.08
2018-02-23T03:31:51.197Z,-7.06
2018-02-23T03:32:51.192Z,-6.95
2018-02-23T03:33:51.180Z,-7.02
2018-02-23T03:34:51.158Z,-6.95
2018-02-23T03:35:51.165Z,-6.88
2018-02-23T03:36:51.184Z,-6.81
2018-02-23T03:37:51.125Z,-6.82
2018-02-23T03:38:51.095Z,-6.84
2018-02-23T03:39:51.103Z,-6.82
2018-02-23T03:40:51.060Z,-6.81
2018-02-23T03:41:51.116Z,-6.74
2018-02-23T03:42:51.041Z,-6.77
2018-02-23T03:43:51.040Z,-6.77
2018-02-23T03:44:51.033Z,-6.69
2018-02-23T03:45:51.054Z,-6.67
2018-02-23T03:46:50.979Z,-6.64
2018-02-23T03:47:51.008Z,-6.70
2018-02-23T03:48:50.955Z,-6.69
2018-02-23T03:49:50.935Z,-6.67
2018-02-23T03:50:50.945Z,-6.61
2018-02-23T03:51:52.056Z,-6.59
2018-02-23T03:52:50.915Z,-6.66
2018-02-23T03:53:50.920Z,-6.61
2018-02-23T03:54:50.867Z,-6.59
2018-02-23T03:55:50.860Z,-6.61
2018-02-23T03:56:50.838Z,-6.61
2018-02-23T03:57:50.843Z,-6.64
2018-02-23T03:58:50.833Z,-6.64
2018-02-23T03:59:50.854Z,-6.63
2018-02-23T04:00:50.808Z,-6.66
2018-02-23T04:01:50.815Z,-6.76
2018-02-23T04:02:50.797Z,-6.79
2018-02-23T04:03:50.798Z,-6.82
2018-02-23T04:04:50.752Z,-6.92
2018-02-23T04:05:50.714Z,-6.92
2018-02-23T04:06:50.714Z,-6.92
2018-02-23T04:07:50.696Z,-6.88
2018-02-23T04:08:50.699Z,-6.92
2018-02-23T04:09:50.675Z,-6.90
2018-02-23T04:10:50.682Z,-7.02
2018-02-23T04:11:50.624Z,-6.97
2018-02-23T04:12:50.612Z,-6.95
2018-02-23T04:13:50.610Z,-7.03
2018-02-23T04:14:50.590Z,-6.97
2018-02-23T04:15:50.568Z,-6.99
2018-02-23T04:16:50.554Z,-6.94
2018-02-23T04:17:50.567Z,-6.99
2018-02-23T04:18:50.556Z,-7.00
2018-02-23T04:19:50.515Z,-6.90
2018-02-23T04:20:50.502Z,-6.97
2018-02-23T04:21:50.505Z,-6.99
2018-02-23T04:22:50.495Z,-7.08
2018-02-23T04:23:50.492Z,-7.06
2018-02-23T04:24:50.438Z,-7.06
2018-02-23T04:25:50.426Z,-7.10
2018-02-23T04:26:50.422Z,-7.12
2018-02-23T04:27:50.405Z,-7.19
2018-02-23T04:28:50.425Z,-7.21
2018-02-23T04:29:50.434Z,-7.16
2018-02-23T04:30:50.355Z,-7.16
2018-02-23T04:31:50.342Z,-7.27
2018-02-23T04:32:50.393Z,-7.30
2018-02-23T04:33:50.339Z,-7.16
2018-02-23T04:34:50.320Z,-7.23
2018-02-23T04:35:50.317Z,-7.19
2018-02-23T04:36:50.278Z,-7.12
2018-02-23T04:37:50.263Z,-7.15
2018-02-23T04:38:50.248Z,-7.19
2018-02-23T04:39:50.229Z,-7.19
2018-02-23T04:40:51.175Z,-7.24
2018-02-23T04:41:50.200Z,-7.38
2018-02-23T04:42:50.188Z,-7.39
2018-02-23T04:43:50.173Z,-7.42
2018-02-23T04:44:50.161Z,-7.42
2018-02-23T04:45:50.145Z,-7.41
2018-02-23T04:46:50.131Z,-7.33
2018-02-23T04:47:50.118Z,-7.31
2018-02-23T04:48:50.106Z,-7.23
2018-02-23T04:49:50.108Z,-7.20
2018-02-23T04:50:50.075Z,-7.24
2018-02-23T04:51:50.080Z,-7.19
2018-02-23T04:52:50.055Z,-7.34
2018-02-23T04:53:50.031Z,-7.38
2018-02-23T04:54:50.016Z,-7.38
2018-02-23T04:55:49.994Z,-7.38
2018-02-23T04:56:50.017Z,-7.42
2018-02-23T04:57:50.095Z,-7.38
2018-02-23T04:58:49.954Z,-7.20
2018-02-23T04:59:49.939Z,-7.19
2018-02-23T05:00:51.672Z,-7.09
2018-02-23T05:01:49.916Z,-7.10
2018-02-23T05:02:49.934Z,-7.29
2018-02-23T05:03:49.887Z,-7.34
2018-02-23T05:04:49.938Z,-7.38
2018-02-23T05:05:49.856Z,-7.49
2018-02-23T05:06:49.905Z,-7.52
2018-02-23T05:07:49.822Z,-7.59
2018-02-23T05:08:49.812Z,-7.69
2018-02-23T05:09:49.795Z,-7.74
2018-02-23T05:10:49.810Z,-7.72
2018-02-23T05:11:49.773Z,-7.79
2018-02-23T05:12:49.756Z,-7.69
2018-02-23T05:13:49.743Z,-7.86
2018-02-23T05:14:49.720Z,-7.79
2018-02-23T05:15:49.739Z,-7.66
2018-02-23T05:16:49.739Z,-7.60
2018-02-23T05:17:49.740Z,-7.54
2018-02-23T05:18:49.756Z,-7.47
2018-02-23T05:19:49.691Z,-7.52
2018-02-23T05:20:49.648Z,-7.45
2018-02-23T05:21:49.634Z,-7.33
2018-02-23T05:22:49.628Z,-7.37
2018-02-23T05:23:49.692Z,-7.38
2018-02-23T05:24:51.289Z,-7.31
2018-02-23T05:25:49.589Z,-7.31
2018-02-23T05:26:49.573Z,-7.34
2018-02-23T05:27:49.542Z,-7.26
2018-02-23T05:28:49.554Z,-7.21
2018-02-23T05:29:49.530Z,-7.12
2018-02-23T05:30:49.520Z,-7.10
2018-02-23T05:31:49.497Z,-7.09
2018-02-23T05:32:49.462Z,-6.95
2018-02-23T05:33:49.449Z,-6.82
2018-02-23T05:34:49.469Z,-6.81
2018-02-23T05:35:49.458Z,-6.76
2018-02-23T05:36:49.611Z,-6.67
2018-02-23T05:37:49.420Z,-6.66
2018-02-23T05:38:49.493Z,-6.67
2018-02-23T05:39:49.425Z,-6.69
2018-02-23T05:40:49.486Z,-6.67
2018-02-23T05:41:51.273Z,-6.55
2018-02-23T05:42:49.406Z,-6.58
2018-02-23T05:43:53.329Z,-6.54
2018-02-23T05:44:49.471Z,-6.64
2018-02-23T05:45:49.396Z,-6.58
2018-02-23T05:46:49.406Z,-6.54
2018-02-23T05:47:49.369Z,-6.55
2018-02-23T05:48:49.390Z,-6.48
2018-02-23T05:49:49.251Z,-6.59
2018-02-23T05:50:49.230Z,-6.51
2018-02-23T05:51:49.340Z,-6.55
2018-02-23T05:52:49.168Z,-6.54
2018-02-23T05:53:49.153Z,-6.64
2018-02-23T05:54:49.151Z,-6.63
2018-02-23T05:55:49.122Z,-6.58
2018-02-23T05:56:49.109Z,-6.71
2018-02-23T05:57:49.094Z,-6.69
2018-02-23T05:58:49.081Z,-6.64
2018-02-23T05:59:49.069Z,-6.71
2018-02-23T06:00:49.116Z,-6.67
2018-02-23T06:01:49.132Z,-6.79
2018-02-23T06:02:49.025Z,-6.66
2018-02-23T06:03:49.006Z,-6.73
2018-02-23T06:04:49.056Z,-6.79
2018-02-23T06:05:49.053Z,-6.74
2018-02-23T06:06:49.050Z,-6.70
2018-02-23T06:07:50.788Z,-6.73
2018-02-23T06:08:48.968Z,-6.77
2018-02-23T06:09:48.922Z,-6.81
2018-02-23T06:10:48.906Z,-6.85
2018-02-23T06:11:48.894Z,-6.76
2018-02-23T06:12:48.879Z,-6.84
2018-02-23T06:13:48.899Z,-6.97
2018-02-23T06:14:48.874Z,-6.82
2018-02-23T06:15:48.900Z,-6.88
2018-02-23T06:16:48.909Z,-6.99
2018-02-23T06:17:48.901Z,-6.94
2018-02-23T06:18:48.820Z,-6.99
2018-02-23T06:19:48.784Z,-7.10
2018-02-23T06:20:48.791Z,-7.08
2018-02-23T06:21:48.794Z,-7.06
2018-02-23T06:22:48.742Z,-7.12
2018-02-23T06:23:48.729Z,-7.20
2018-02-23T06:24:48.718Z,-7.26
2018-02-23T06:25:48.706Z,-7.15
2018-02-23T06:26:48.680Z,-7.15
2018-02-23T06:27:48.678Z,-7.20
2018-02-23T06:28:48.684Z,-7.20
2018-02-23T06:29:48.759Z,-7.33
2018-02-23T06:30:48.625Z,-7.33
2018-02-23T06:31:48.646Z,-7.56
2018-02-23T06:32:48.622Z,-7.56
2018-02-23T06:33:48.665Z,-7.65
2018-02-23T06:34:48.566Z,-7.62
2018-02-23T06:35:48.593Z,-7.63
2018-02-23T06:36:48.570Z,-7.60
2018-02-23T06:37:48.547Z,-7.65
2018-02-23T06:38:50.176Z,-7.66
2018-02-23T06:39:48.580Z,-7.52
2018-02-23T06:40:48.485Z,-7.41
2018-02-23T06:41:48.465Z,-7.20
2018-02-23T06:42:48.469Z,-6.94
2018-02-23T06:43:48.431Z,-6.71
2018-02-23T06:44:48.424Z,-6.64
2018-02-23T06:45:48.512Z,-6.48
2018-02-23T06:46:48.442Z,-6.27
2018-02-23T06:47:48.397Z,-6.09
2018-02-23T06:48:48.411Z,-5.87
2018-02-23T06:49:48.462Z,-5.65
2018-02-23T06:50:48.334Z,-5.51
2018-02-23T06:51:48.318Z,-5.33
2018-02-23T06:52:48.303Z,-5.19
2018-02-23T06:53:48.295Z,-5.00
2018-02-23T06:54:48.319Z,-4.80
2018-02-23T06:55:48.317Z,-4.75
2018-02-23T06:56:48.252Z,-4.47
2018-02-23T06:57:48.239Z,-4.41
2018-02-23T06:58:48.241Z,-4.28
2018-02-23T06:59:48.238Z,-4.22
2018-02-23T07:00:48.232Z,-4.28
2018-02-23T07:01:48.303Z,-4.12
2018-02-23T07:02:48.215Z,-3.87
2018-02-23T07:03:48.298Z,-3.86
2018-02-23T07:04:48.202Z,-3.71
2018-02-23T07:05:48.174Z,-3.57
2018-02-23T07:06:48.127Z,-3.46
2018-02-23T07:07:48.116Z,-3.28
2018-02-23T07:08:48.106Z,-3.29
2018-02-23T07:09:48.096Z,-3.07
2018-02-23T07:10:48.108Z,-2.90
2018-02-23T07:11:48.073Z,-2.68
2018-02-23T07:12:48.060Z,-2.60
2018-02-23T07:13:48.052Z,-2.64
2018-02-23T07:14:48.043Z,-2.78
2018-02-23T07:15:48.043Z,-2.54
2018-02-23T07:16:48.022Z,-2.35
2018-02-23T07:17:48.012Z,-2.35
2018-02-23T07:18:48.000Z,-2.29
2018-02-23T07:19:47.990Z,-3.14
2018-02-23T07:20:47.983Z,-3.65
2018-02-23T07:21:47.974Z,-4.23
2018-02-23T07:22:47.965Z,-4.48
2018-02-23T07:23:47.953Z,-4.62
2018-02-23T07:24:47.946Z,-4.82
2018-02-23T07:25:47.937Z,-4.93
2018-02-23T07:26:47.925Z,-5.01
2018-02-23T07:27:47.916Z,-5.05
2018-02-23T07:28:47.906Z,-4.97
2018-02-23T07:29:47.896Z,-4.98
2018-02-23T07:30:47.913Z,-5.17
2018-02-23T07:31:47.908Z,-5.43
2018-02-23T07:32:47.960Z,-5.55
2018-02-23T07:33:47.863Z,-5.43
2018-02-23T07:34:47.845Z,-5.47
2018-02-23T07:35:47.834Z,-5.43
2018-02-23T07:36:47.824Z,-5.52
2018-02-23T07:37:47.815Z,-5.38
2018-02-23T07:38:47.809Z,-5.33
2018-02-23T07:39:47.791Z,-5.37
2018-02-23T07:40:47.778Z,-5.41
2018-02-23T07:41:47.769Z,-5.33
2018-02-23T07:42:47.753Z,-5.26
2018-02-23T07:43:47.754Z,-5.27
2018-02-23T07:44:47.733Z,-5.14
2018-02-23T07:45:47.723Z,-5.20
2018-02-23T07:46:47.740Z,-5.07
2018-02-23T07:47:47.700Z,-5.11
2018-02-23T07:48:47.719Z,-4.98
2018-02-23T07:49:47.675Z,-4.95
2018-02-23T07:50:47.663Z,-4.83
2018-02-23T07:51:47.670Z,-4.76
2018-02-23T07:52:47.638Z,-4.66
2018-02-23T07:53:47.628Z,-4.66
2018-02-23T07:54:47.613Z,-4.68
2018-02-23T07:55:47.601Z,-4.51
2018-02-23T07:56:47.591Z,-4.29
2018-02-23T07:57:47.584Z,-4.29
2018-02-23T07:58:47.572Z,-4.48
2018-02-23T07:59:47.556Z,-4.37
2018-02-23T08:00:47.552Z,-4.36
2018-02-23T08:01:47.542Z,-3.89
2018-02-23T08:02:47.535Z,-2.94
2018-02-23T08:03:47.547Z,-2.45
2018-02-23T08:04:47.510Z,-1.66
2018-02-23T08:05:47.498Z,-1.54
2018-02-23T08:06:47.483Z,-1.56
2018-02-23T08:07:47.470Z,-1.46
2018-02-23T08:08:47.470Z,-1.27
2018-02-23T08:09:47.492Z,-1.59
2018-02-23T08:10:47.444Z,-1.46
2018-02-23T08:11:47.442Z,-1.36
2018-02-23T08:12:47.452Z,-0.75
2018-02-23T08:13:47.420Z,-0.42
2018-02-23T08:14:47.429Z,-0.37
2018-02-23T08:15:47.409Z,-0.50
2018-02-23T08:16:47.397Z,-0.54
2018-02-23T08:17:47.409Z,-1.15
2018-02-23T08:18:47.383Z,-1.02
2018-02-23T08:19:47.375Z,-0.60
2018-02-23T08:20:47.370Z,-1.63
2018-02-23T08:21:47.363Z,-2.00
2018-02-23T08:22:47.363Z,-1.35
2018-02-23T08:23:47.368Z,-1.31
2018-02-23T08:24:47.349Z,-1.45
2018-02-23T08:25:47.339Z,-1.31
2018-02-23T08:26:47.338Z,-1.95
2018-02-23T08:27:47.324Z,-1.63
2018-02-23T08:28:47.323Z,-1.45
2018-02-23T08:29:47.317Z,-1.72
2018-02-23T08:30:47.306Z,-2.16
2018-02-23T08:31:47.304Z,-1.98
2018-02-23T08:32:47.305Z,-2.69
2018-02-23T08:33:47.294Z,-2.96
2018-02-23T08:34:47.285Z,-3.23
2018-02-23T08:35:47.279Z,-3.26
2018-02-23T08:36:55.951Z,-3.28
2018-02-23T08:38:41.650Z,-2.90
2018-02-23T08:39:41.727Z,-3.13
2018-02-23T08:41:36.026Z,-3.41
2018-02-23T08:42:35.985Z,-3.54
2018-02-23T08:43:36.108Z,-3.68
2018-02-23T08:44:35.966Z,-3.62
2018-02-23T08:45:35.955Z,-3.83
2018-02-23T08:46:35.955Z,-3.90
2018-02-23T08:47:35.954Z,-3.54
2018-02-23T08:48:35.930Z,-3.68
2018-02-23T08:49:35.960Z,-3.87
2018-02-23T08:50:35.948Z,-3.38
2018-02-23T08:51:35.903Z,-3.60
2018-02-23T08:52:35.889Z,-3.70
2018-02-23T08:53:35.881Z,-3.93
2018-02-23T08:54:35.869Z,-3.91
2018-02-23T08:55:35.864Z,-3.91
2018-02-23T08:56:35.851Z,-3.43
2018-02-23T08:57:35.842Z,-3.62
2018-02-23T08:58:35.832Z,-3.70
2018-02-23T08:59:36.552Z,-3.91
2018-02-23T09:00:35.816Z,-3.84
2018-02-23T09:01:35.805Z,-3.49
2018-02-23T09:02:35.796Z,-3.83
2018-02-23T09:03:35.784Z,-3.86
2018-02-23T09:04:35.774Z,-3.90
2018-02-23T09:05:35.764Z,-3.87
2018-02-23T09:06:35.762Z,-3.87
2018-02-23T09:07:35.748Z,-3.87
2018-02-23T09:08:35.737Z,-3.98
2018-02-23T09:09:35.725Z,-4.04
2018-02-23T09:10:35.717Z,-3.93
2018-02-23T09:11:35.704Z,-3.86
2018-02-23T09:12:35.748Z,-3.93
2018-02-23T09:13:35.684Z,-3.89
2018-02-23T09:14:35.702Z,-3.71
2018-02-23T09:15:35.664Z,-3.53
2018-02-23T09:16:35.652Z,-3.32
2018-02-23T09:17:35.641Z,-3.51
2018-02-23T09:18:35.637Z,-3.39
2018-02-23T09:19:35.622Z,-3.38
2018-02-23T09:20:35.611Z,-3.60
2018-02-23T09:21:35.619Z,-3.62
2018-02-23T09:22:35.592Z,-2.82
2018-02-23T09:23:35.585Z,-2.14
2018-02-23T09:24:35.573Z,-2.20
2018-02-23T09:25:36.544Z,-2.76
2018-02-23T09:26:35.555Z,-2.47
2018-02-23T09:27:35.546Z,-2.63
2018-02-23T09:28:35.535Z,-2.20
2018-02-23T09:29:35.529Z,-1.30
2018-02-23T09:30:35.525Z,-0.70
2018-02-23T09:31:35.514Z,-0.11
2018-02-23T09:32:35.506Z,-0.19
2018-02-23T09:33:35.502Z,-0.08
2018-02-23T09:34:35.495Z,-0.50
2018-02-23T09:35:35.488Z,0.71
2018-02-23T09:36:35.482Z,0.57
2018-02-23T09:37:35.606Z,0.75
2018-02-23T09:38:35.475Z,0.89
2018-02-23T09:39:38.055Z,1.08
2018-02-23T09:40:58.802Z,0.30
2018-02-23T09:41:35.477Z,-0.31
2018-02-23T09:42:38.082Z,-0.27
2018-02-23T09:43:44.116Z,0.03
2018-02-23T09:45:32.762Z,-0.01
2018-02-23T09:47:57.478Z,-0.97
2018-02-23T09:48:57.365Z,-0.45
2018-02-23T09:49:57.444Z,0.24
2018-02-23T09:50:57.362Z,0.58
2018-02-23T09:51:57.365Z,0.70
2018-02-23T09:52:57.358Z,0.83
2018-02-23T09:53:57.492Z,0.42
2018-02-23T09:54:57.465Z,0.39
2018-02-23T09:55:57.479Z,0.71
2018-02-23T09:56:57.499Z,0.68
2018-02-23T09:57:57.383Z,0.70
2018-02-23T09:58:57.390Z,0.92
2018-02-23T09:59:57.395Z,0.33
2018-02-23T10:00:57.398Z,0.23
2018-02-23T10:01:58.337Z,-0.31
2018-02-23T10:03:05.818Z,-0.22
2018-02-23T10:04:51.577Z,0.03
2018-02-23T10:05:51.678Z,-0.15
2018-02-23T10:07:45.940Z,-0.72
2018-02-23T10:08:45.957Z,-0.87
2018-02-23T10:09:45.953Z,-0.91
2018-02-23T10:10:46.032Z,-0.66
2018-02-23T10:11:45.950Z,-0.68
2018-02-23T10:12:45.954Z,-0.63
2018-02-23T10:13:45.940Z,-0.78
2018-02-23T10:14:45.939Z,-0.81
2018-02-23T10:15:47.495Z,-0.62
2018-02-23T10:16:46.007Z,-0.70
2018-02-23T10:17:45.947Z,-0.65
2018-02-23T10:18:45.946Z,-0.44
2018-02-23T10:19:46.871Z,-0.42
2018-02-23T10:22:37.744Z,-0.62
2018-02-23T10:23:37.656Z,-0.45
2018-02-23T10:25:32.892Z,-0.33
2018-02-23T10:26:32.034Z,-0.44
2018-02-23T10:30:06.683Z,-1.25
2018-02-23T10:31:04.352Z,-1.48
2018-02-23T10:34:25.217Z,-0.81
2018-02-23T10:35:11.657Z,-0.62
2018-02-23T10:37:52.864Z,-0.57
2018-02-23T10:39:03.069Z,-0.66
2018-02-23T10:40:43.929Z,-0.50
2018-02-23T10:41:44.305Z,-0.09
2018-02-23T10:43:39.324Z,-0.37
2018-02-23T10:44:39.302Z,-0.57
2018-02-23T10:46:34.778Z,-0.42
2018-02-23T10:47:34.717Z,-0.45
2018-02-23T10:48:34.621Z,-0.34
2018-02-23T10:49:34.577Z,-0.31
2018-02-23T10:51:29.117Z,0.21
2018-02-23T10:52:37.642Z,0.38
2018-02-23T10:54:26.695Z,-0.11
2018-02-23T10:57:07.810Z,-0.13
2018-02-23T10:58:07.700Z,-0.26
2018-02-23T11:00:02.062Z,0.02
2018-02-23T11:01:02.232Z,0.00
2018-02-23T11:02:58.686Z,0.12
2018-02-23T11:05:52.039Z,0.24
2018-02-23T11:06:52.109Z,-0.24
2018-02-23T11:07:53.984Z,-0.04
2018-02-23T11:08:52.860Z,-0.09
2018-02-23T11:09:52.118Z,-0.47
2018-02-23T11:10:52.073Z,-0.50
2018-02-23T11:13:32.791Z,0.05
2018-02-23T11:16:18.797Z,0.41
2018-02-23T11:17:17.724Z,0.21
2018-02-23T11:18:17.813Z,0.42
2018-02-23T11:19:17.759Z,0.23
2018-02-23T11:20:17.742Z,0.34
2018-02-23T11:21:17.684Z,0.23
2018-02-23T11:22:17.700Z,0.15
2018-02-23T11:23:17.677Z,0.41
2018-02-23T11:24:17.748Z,0.78
2018-02-23T11:25:17.739Z,0.82
2018-02-23T11:26:17.889Z,0.72
2018-02-23T11:27:42.012Z,0.89
2018-02-23T11:29:13.425Z,0.83
2018-02-23T11:30:13.108Z,0.89
2018-02-23T11:31:13.057Z,0.72
2018-02-23T11:32:13.019Z,0.94
2018-02-23T11:33:13.149Z,0.98
2018-02-23T11:34:13.022Z,1.10
2018-02-23T11:35:13.115Z,1.21
2018-02-23T11:38:07.860Z,0.82
2018-02-23T11:38:59.927Z,0.89
2018-02-23T11:39:59.847Z,0.61
2018-02-23T11:40:59.845Z,0.41
2018-02-23T11:41:59.813Z,0.46
2018-02-23T11:42:59.811Z,0.48
2018-02-23T11:43:59.823Z,0.23
2018-02-23T11:47:20.392Z,0.53
2018-02-23T11:48:58.471Z,0.76
2018-02-23T11:50:53.190Z,0.68
2018-02-23T11:53:47.680Z,0.57
2018-02-23T11:54:47.845Z,0.68
2018-02-23T11:57:16.210Z,0.49
2018-02-23T12:08:28.263Z,0.75
2018-02-23T12:20:44.496Z,1.21
2018-02-23T12:26:49.023Z,1.14
2018-02-23T12:27:49.002Z,1.14
2018-02-23T12:29:45.999Z,1.24
2018-02-23T12:34:17.396Z,0.79
2018-02-23T12:35:17.364Z,0.58
2018-02-23T12:37:11.722Z,0.30
2018-02-23T12:38:11.728Z,0.58
2018-02-23T12:40:06.023Z,1.15
2018-02-23T12:41:05.968Z,1.29
2018-02-23T12:43:01.448Z,1.43
2018-02-23T12:44:01.409Z,1.46
2018-02-23T12:45:55.662Z,1.51
2018-02-23T12:46:55.788Z,1.68
2018-02-23T12:48:51.091Z,1.39
2018-02-23T12:49:51.033Z,1.36
2018-02-23T12:51:46.366Z,1.00
2018-02-23T12:52:46.371Z,0.82
2018-02-23T12:54:40.848Z,0.88
2018-02-23T12:55:41.235Z,1.03
2018-02-23T12:56:40.705Z,0.86
2018-02-23T12:59:22.607Z,1.12
2018-02-23T13:02:07.833Z,1.07
2018-02-23T13:03:09.294Z,0.82
2018-02-23T13:05:16.826Z,0.96
2018-02-23T13:06:06.168Z,0.92
2018-02-23T13:13:45.190Z,1.08
2018-02-23T13:16:45.931Z,1.25
2018-02-23T13:17:33.296Z,1.18
2018-02-23T13:19:19.105Z,0.82
2018-02-23T13:20:18.705Z,0.90
2018-02-23T13:22:28.250Z,1.21
2018-02-23T13:23:27.463Z,1.37
2018-02-23T13:24:27.613Z,1.50
2018-02-23T13:25:27.443Z,1.44
2018-02-23T13:26:27.321Z,1.51
2018-02-23T13:27:27.322Z,1.16
2018-02-23T13:28:29.856Z,1.15
2018-02-23T13:29:27.495Z,1.29
2018-02-23T13:30:27.476Z,1.25
2018-02-23T13:31:36.039Z,1.29
2018-02-23T13:33:48.098Z,1.21
2018-02-23T13:34:48.246Z,1.32
2018-02-23T13:41:42.283Z,1.18
2018-02-23T13:42:26.224Z,1.12
2018-02-23T13:44:20.310Z,0.97
2018-02-23T13:45:20.332Z,1.04
2018-02-23T13:48:18.566Z,0.70
2018-02-23T13:49:18.574Z,0.94
2018-02-23T13:50:19.393Z,0.98
2018-02-23T13:51:29.541Z,1.12
2018-02-23T13:52:19.250Z,0.94
2018-02-23T13:53:18.611Z,1.00
2018-02-23T13:54:18.540Z,1.15
2018-02-23T13:55:34.076Z,1.15
2018-02-23T13:57:52.263Z,1.29
2018-02-23T13:58:52.174Z,1.47
2018-02-23T13:59:52.757Z,1.44
2018-02-23T14:03:26.824Z,1.18
2018-02-23T14:04:27.880Z,1.04
2018-02-23T14:06:22.116Z,1.33
2018-02-23T14:07:43.112Z,1.26
2018-02-23T14:09:36.917Z,1.29
2018-02-23T14:10:36.973Z,1.33
2018-02-23T14:12:31.519Z,1.29
2018-02-23T14:13:31.430Z,1.34
2018-02-23T14:15:25.669Z,0.98
2018-02-23T14:16:25.735Z,0.83
2018-02-23T14:18:20.342Z,0.86
2018-02-23T14:19:19.979Z,0.98
2018-02-23T14:20:20.149Z,1.00
2018-02-23T14:21:20.086Z,1.06
2018-02-23T14:22:19.953Z,1.08
2018-02-23T14:23:20.055Z,1.18
2018-02-23T14:24:19.938Z,1.08
2018-02-23T14:25:19.931Z,1.18
2018-02-23T14:26:20.574Z,1.14
2018-02-23T14:27:32.087Z,1.08
2018-02-23T14:29:17.390Z,1.08
2018-02-23T14:31:52.289Z,0.49
2018-02-23T14:32:42.729Z,0.46
2018-02-23T14:34:37.141Z,-0.04
2018-02-23T14:35:37.138Z,0.03
2018-02-23T14:37:31.665Z,0.00
2018-02-23T14:38:31.408Z,-0.01
2018-02-23T14:40:25.847Z,-0.01
2018-02-23T14:41:28.727Z,0.21
2018-02-23T14:43:20.292Z,0.23
2018-02-23T14:44:20.113Z,0.23
2018-02-23T14:46:14.509Z,0.20
2018-02-23T14:47:15.041Z,0.13
2018-02-23T14:49:08.852Z,0.30
2018-02-23T14:50:08.796Z,0.41
2018-02-23T14:52:04.212Z,0.61
2018-02-23T14:53:04.141Z,0.60
2018-02-23T14:54:58.724Z,0.61
2018-02-23T14:55:58.671Z,0.71
2018-02-23T14:57:53.146Z,0.68